LIRA/CIA METAR and TAF weather

Enter ICAO airport designator
Station Type Date Time Source
LIRA METAR 2020/07/11 22:20 UTC NOAA

LIRA 112220Z 00000KT CAVOK 23/21 Q1015


Station Type Date Time Source
LIRA Decoded METAR 2020/07/11 22:20 UTC NOAA

Roma / Ciampino, Italy (LIRA) 41-47N 012-35E 105M
Jul 11, 2020 - 06:20 PM EDT / 2020.07.11 2220 UTC
Wind: Calm:0
Visibility: greater than 7 mile(s):0
Temperature: 73 F (23 C)
Dew Point: 69 F (21 C)
Relative Humidity: 88%
Pressure (altimeter): 29.97 in. Hg (1015 hPa)
ob: LIRA 112220Z 00000KT CAVOK 23/21 Q1015
cycle: 22

Station Type Date Time Source
LIRA TAF 2020/07/11 18:21 UTC NOAA

TAF LIRA 111700Z 1118/1218 VRB04KT CAVOK
BECMG 1208/1210 24010KT

Example: see airport list